Time;durP1;ratioP1;P1;durP2;ratioP2;P2;SDS_P1;SDS_P2;PMS_P1;PMS_P2;Temp;Humidity;BMP_temperature;BMP_pressure;BME280_temperature;BME280_humidity;BME280_pressure;Samples;Min_cycle;Max_cycle;Signal;HPM_P1;HPM_P2
2023/09/29 00:01:42;;;;;;;10.37;3.97;;;;;;;;;;5054702;28;20211;-82
2023/09/29 00:04:11;;;;;;;13.20;4.40;;;;;;;;;;5054961;28;20226;-82
2023/09/29 00:06:41;;;;;;;10.93;3.47;;;;;;;;;;5055134;28;20207;-82
2023/09/29 00:09:12;;;;;;;8.13;3.03;;;;;;;;;;5055108;28;20209;-82
2023/09/29 00:11:41;;;;;;;17.00;4.10;;;;;;;;;;5055051;28;20205;-82
2023/09/29 00:14:09;;;;;;;11.57;4.13;;;;;;;;;;5054606;28;20201;-82
2023/09/29 00:16:38;;;;;;;10.80;4.33;;;;;;;;;;5054527;28;20210;-81
2023/09/29 00:19:06;;;;;;;10.20;4.13;;;;;;;;;;5054956;28;20224;-82
2023/09/29 00:21:35;;;;;;;9.53;2.97;;;;;;;;;;5054180;28;20197;-82
2023/09/29 00:24:05;;;;;;;11.97;4.17;;;;;;;;;;5054944;28;20206;-82
2023/09/29 00:26:33;;;;;;;9.13;4.17;;;;;;;;;;5054714;28;20195;-84
2023/09/29 00:29:02;;;;;;;9.23;3.60;;;;;;;;;;5054307;28;20201;-84
2023/09/29 00:31:32;;;;;;;8.07;3.57;;;;;;;;;;5054722;28;20206;-83
2023/09/29 00:34:01;;;;;;;6.10;2.67;;;;;;;;;;5054864;28;20263;-82
2023/09/29 00:36:29;;;;;;;9.80;4.17;;;;;;;;;;5054002;28;20472;-82
2023/09/29 00:38:59;;;;;;;10.63;2.97;;;;;;;;;;5053426;28;20210;-82
2023/09/29 00:41:29;;;;;;;6.27;2.87;;;;;;;;;;5054496;28;20216;-82
2023/09/29 00:43:58;;;;;;;7.93;2.50;;;;;;;;;;5054376;28;20206;-82
2023/09/29 00:46:29;;;;;;;2.10;1.80;;;;;;;;;;5054138;28;20194;-82
2023/09/29 00:48:59;;;;;;;11.63;4.30;;;;;;;;;;5053882;28;20216;-82
2023/09/29 00:51:28;;;;;;;10.77;2.43;;;;;;;;;;5053604;28;20211;-84
2023/09/29 00:53:57;;;;;;;13.70;3.80;;;;;;;;;;5054562;28;20202;-84
2023/09/29 00:56:26;;;;;;;11.43;3.43;;;;;;;;;;5053550;28;20264;-84
2023/09/29 00:58:56;;;;;;;12.27;3.70;;;;;;;;;;5053970;28;20191;-82
2023/09/29 01:01:25;;;;;;;14.40;4.60;;;;;;;;;;5054484;28;20300;-84
2023/09/29 01:03:53;;;;;;;11.30;3.97;;;;;;;;;;5053778;28;20234;-84
2023/09/29 01:06:22;;;;;;;10.63;3.90;;;;;;;;;;5053225;28;20194;-84
2023/09/29 01:08:52;;;;;;;11.00;4.43;;;;;;;;;;5053751;28;20213;-84
2023/09/29 01:11:20;;;;;;;9.90;3.23;;;;;;;;;;5054369;28;20260;-84
2023/09/29 01:13:51;;;;;;;13.13;4.33;;;;;;;;;;5053616;28;20230;-84
2023/09/29 01:16:21;;;;;;;13.37;4.47;;;;;;;;;;5053412;28;20225;-84
2023/09/29 01:18:50;;;;;;;11.50;3.50;;;;;;;;;;5053501;28;20285;-84
2023/09/29 01:21:19;;;;;;;12.80;4.50;;;;;;;;;;5053411;28;20264;-83
2023/09/29 01:23:48;;;;;;;9.30;3.70;;;;;;;;;;5053549;28;20210;-84
2023/09/29 01:26:18;;;;;;;12.77;4.13;;;;;;;;;;5053292;28;20206;-83
2023/09/29 01:28:47;;;;;;;11.17;4.00;;;;;;;;;;5053380;28;20208;-83
2023/09/29 01:31:15;;;;;;;10.53;5.70;;;;;;;;;;5053907;28;20198;-83
2023/09/29 01:33:44;;;;;;;8.73;4.60;;;;;;;;;;5053285;28;20229;-84
2023/09/29 01:36:12;;;;;;;9.57;3.43;;;;;;;;;;5053443;28;20209;-83
2023/09/29 01:38:42;;;;;;;9.90;4.10;;;;;;;;;;5053091;28;20206;-84
2023/09/29 01:41:13;;;;;;;17.20;3.90;;;;;;;;;;5053302;28;20223;-84
2023/09/29 01:43:42;;;;;;;11.87;4.07;;;;;;;;;;5053242;28;20207;-84
2023/09/29 01:46:15;;;;;;;8.80;3.53;;;;;;;;;;5053049;28;20378;-84
2023/09/29 01:48:44;;;;;;;10.10;4.37;;;;;;;;;;5053006;28;20205;-84
2023/09/29 01:51:13;;;;;;;10.57;4.13;;;;;;;;;;5053548;28;20285;-84
2023/09/29 01:53:42;;;;;;;9.87;3.80;;;;;;;;;;5052648;28;20264;-84
2023/09/29 01:56:12;;;;;;;8.97;3.77;;;;;;;;;;5052986;28;20209;-84
2023/09/29 01:58:41;;;;;;;12.17;4.17;;;;;;;;;;5052846;28;20226;-84
2023/09/29 02:01:09;;;;;;;10.63;4.20;;;;;;;;;;5052588;28;20239;-83
2023/09/29 02:03:38;;;;;;;21.07;5.67;;;;;;;;;;5051577;28;20353;-84
2023/09/29 02:06:06;;;;;;;10.60;4.67;;;;;;;;;;5053032;28;20257;-84
2023/09/29 02:08:35;;;;;;;10.47;4.77;;;;;;;;;;5052739;28;20264;-85
2023/09/29 02:11:06;;;;;;;14.93;4.77;;;;;;;;;;5052501;28;20206;-83
2023/09/29 02:13:35;;;;;;;11.07;5.27;;;;;;;;;;5052425;28;20256;-84
2023/09/29 02:16:05;;;;;;;10.33;5.07;;;;;;;;;;5052701;28;20207;-83
2023/09/29 02:18:34;;;;;;;13.47;5.07;;;;;;;;;;5052691;28;20232;-83
2023/09/29 02:21:08;;;;;;;10.30;4.70;;;;;;;;;;5052038;28;20194;-83
2023/09/29 02:23:38;;;;;;;12.47;3.83;;;;;;;;;;5052633;28;20232;-84
2023/09/29 02:26:08;;;;;;;11.83;4.07;;;;;;;;;;5052520;28;20202;-83
2023/09/29 02:28:38;;;;;;;15.47;5.77;;;;;;;;;;5052501;28;20198;-84
2023/09/29 02:31:12;;;;;;;10.97;3.33;;;;;;;;;;5052421;28;20408;-83
2023/09/29 02:33:41;;;;;;;11.40;4.27;;;;;;;;;;5052241;28;20205;-83
2023/09/29 02:36:09;;;;;;;8.93;4.63;;;;;;;;;;5052426;28;20300;-83
2023/09/29 02:38:38;;;;;;;12.47;5.60;;;;;;;;;;5051682;28;20221;-84
2023/09/29 02:41:07;;;;;;;17.27;6.20;;;;;;;;;;5052173;28;20293;-84
2023/09/29 02:43:36;;;;;;;18.33;5.73;;;;;;;;;;5052198;28;20207;-83
2023/09/29 02:46:06;;;;;;;12.83;5.30;;;;;;;;;;5051966;28;20201;-84
2023/09/29 02:48:35;;;;;;;19.10;6.40;;;;;;;;;;5051586;28;20253;-84
2023/09/29 02:51:03;;;;;;;7.50;4.13;;;;;;;;;;5051482;28;20220;-84
2023/09/29 02:53:33;;;;;;;13.63;5.67;;;;;;;;;;5051988;28;20206;-84
2023/09/29 02:56:03;;;;;;;16.37;7.43;;;;;;;;;;5051637;28;20237;-84
2023/09/29 02:58:34;;;;;;;11.23;4.00;;;;;;;;;;5051128;28;20301;-84
2023/09/29 03:01:02;;;;;;;11.70;5.43;;;;;;;;;;5051197;28;20209;-85
2023/09/29 03:03:32;;;;;;;17.37;6.27;;;;;;;;;;5051735;28;20270;-84
2023/09/29 03:06:01;;;;;;;12.50;5.07;;;;;;;;;;5051780;28;20194;-85
2023/09/29 03:08:29;;;;;;;14.43;6.13;;;;;;;;;;5051342;28;20248;-83
2023/09/29 03:10:58;;;;;;;19.00;5.70;;;;;;;;;;5051868;28;20401;-83
2023/09/29 03:13:27;;;;;;;11.73;5.37;;;;;;;;;;5051803;28;20198;-83
2023/09/29 03:15:56;;;;;;;16.97;6.50;;;;;;;;;;5051300;28;20216;-83
2023/09/29 03:18:25;;;;;;;16.37;6.10;;;;;;;;;;5051312;28;20222;-82
2023/09/29 03:20:55;;;;;;;15.57;5.77;;;;;;;;;;5051352;28;20205;-82
2023/09/29 03:23:24;;;;;;;7.07;3.47;;;;;;;;;;5051678;28;20198;-82
2023/09/29 03:25:52;;;;;;;11.00;5.13;;;;;;;;;;5050889;28;20265;-82
2023/09/29 03:28:21;;;;;;;12.83;4.47;;;;;;;;;;5051355;28;20219;-82
2023/09/29 03:30:49;;;;;;;13.07;5.80;;;;;;;;;;5051635;28;20198;-82
2023/09/29 03:33:18;;;;;;;10.27;3.67;;;;;;;;;;5051321;28;20216;-82
2023/09/29 03:35:47;;;;;;;10.57;4.63;;;;;;;;;;5051336;28;20208;-82
2023/09/29 03:38:20;;;;;;;12.83;5.13;;;;;;;;;;5051504;28;20237;-82
2023/09/29 03:40:50;;;;;;;9.07;4.47;;;;;;;;;;5051440;28;20219;-84
2023/09/29 03:43:18;;;;;;;14.63;4.77;;;;;;;;;;5051567;28;20206;-84
2023/09/29 03:45:47;;;;;;;15.50;5.17;;;;;;;;;;5051231;28;20224;-84
2023/09/29 03:48:16;;;;;;;9.07;4.87;;;;;;;;;;5051290;28;20186;-85
2023/09/29 03:50:49;;;;;;;9.93;4.30;;;;;;;;;;5051333;28;20195;-84
2023/09/29 03:53:21;;;;;;;18.20;5.70;;;;;;;;;;5050887;28;20228;-84
2023/09/29 03:55:52;;;;;;;5.97;2.40;;;;;;;;;;5051217;28;20265;-84
2023/09/29 03:58:21;;;;;;;6.43;4.50;;;;;;;;;;5051130;28;20225;-84
2023/09/29 04:00:50;;;;;;;5.53;2.83;;;;;;;;;;5051349;28;20200;-84
2023/09/29 04:03:18;;;;;;;12.63;5.77;;;;;;;;;;5050735;28;20241;-84
2023/09/29 04:05:47;;;;;;;9.67;4.10;;;;;;;;;;5051660;28;20198;-84
2023/09/29 04:08:16;;;;;;;10.07;4.43;;;;;;;;;;5051768;28;20194;-83
2023/09/29 04:10:46;;;;;;;12.17;5.90;;;;;;;;;;5050763;28;20236;-83
2023/09/29 04:13:15;;;;;;;10.33;4.63;;;;;;;;;;5050799;28;20206;-83
2023/09/29 04:15:43;;;;;;;9.90;4.30;;;;;;;;;;5051378;28;20213;-84
2023/09/29 04:18:11;;;;;;;8.57;3.17;;;;;;;;;;5050938;28;20215;-83
2023/09/29 04:20:41;;;;;;;9.60;5.20;;;;;;;;;;5050709;28;20202;-83
2023/09/29 04:23:09;;;;;;;12.33;4.93;;;;;;;;;;5050875;28;20228;-83
2023/09/29 04:25:38;;;;;;;12.30;5.23;;;;;;;;;;5051383;28;20198;-83
2023/09/29 04:28:08;;;;;;;15.07;6.03;;;;;;;;;;5053930;28;20209;-83
2023/09/29 04:30:36;;;;;;;12.30;4.63;;;;;;;;;;5053871;28;20248;-82
2023/09/29 04:33:05;;;;;;;8.03;4.57;;;;;;;;;;5054768;28;20202;-81
2023/09/29 04:35:34;;;;;;;9.57;4.87;;;;;;;;;;5054444;28;20203;-82
2023/09/29 04:38:03;;;;;;;6.57;3.37;;;;;;;;;;5053955;28;20283;-82
2023/09/29 04:40:31;;;;;;;14.00;5.30;;;;;;;;;;5053691;28;20206;-82
2023/09/29 04:43:00;;;;;;;14.17;3.83;;;;;;;;;;5054579;28;20212;-82
2023/09/29 04:45:29;;;;;;;11.57;4.07;;;;;;;;;;5054741;28;20202;-81
2023/09/29 04:47:58;;;;;;;7.70;3.20;;;;;;;;;;5054337;28;20199;-82
2023/09/29 04:50:27;;;;;;;11.33;5.13;;;;;;;;;;5053937;28;20209;-81
2023/09/29 04:52:55;;;;;;;11.97;3.93;;;;;;;;;;5054088;28;20203;-82
2023/09/29 04:55:24;;;;;;;11.60;6.07;;;;;;;;;;5054126;28;20211;-82
2023/09/29 04:57:54;;;;;;;9.67;3.80;;;;;;;;;;5053894;28;20199;-82
2023/09/29 05:00:23;;;;;;;12.47;4.00;;;;;;;;;;5053590;28;20214;-82
2023/09/29 05:02:53;;;;;;;10.43;4.47;;;;;;;;;;5053835;28;20199;-82
2023/09/29 05:05:22;;;;;;;11.57;4.03;;;;;;;;;;5053753;28;20249;-82
2023/09/29 05:07:50;;;;;;;7.30;3.53;;;;;;;;;;5053566;28;20206;-82
2023/09/29 05:10:20;;;;;;;9.73;3.87;;;;;;;;;;5053683;28;20222;-82
2023/09/29 05:12:48;;;;;;;9.40;3.73;;;;;;;;;;5053622;28;20190;-82
2023/09/29 05:15:17;;;;;;;11.43;4.00;;;;;;;;;;5053722;28;20204;-82
2023/09/29 05:17:45;;;;;;;10.03;4.47;;;;;;;;;;5053147;28;20201;-82
2023/09/29 05:20:21;;;;;;;13.87;3.27;;;;;;;;;;5053611;28;20249;-82
2023/09/29 05:22:50;;;;;;;6.70;4.50;;;;;;;;;;5053723;28;20203;-82
2023/09/29 05:25:18;;;;;;;8.03;4.03;;;;;;;;;;5053712;28;20206;-82
2023/09/29 05:27:47;;;;;;;8.90;4.00;;;;;;;;;;5053279;28;20206;-81
2023/09/29 05:30:18;;;;;;;10.13;4.93;;;;;;;;;;5054589;28;20205;-81
2023/09/29 05:32:46;;;;;;;10.00;4.43;;;;;;;;;;5054203;28;20208;-83
2023/09/29 05:35:15;;;;;;;11.20;3.70;;;;;;;;;;5054270;28;20208;-83
2023/09/29 05:37:45;;;;;;;6.67;3.57;;;;;;;;;;5054146;28;20297;-83
2023/09/29 05:40:14;;;;;;;9.93;3.93;;;;;;;;;;5053780;28;20210;-83
2023/09/29 05:42:43;;;;;;;9.77;2.93;;;;;;;;;;5053854;28;20202;-83
2023/09/29 05:45:21;;;;;;;7.63;3.40;;;;;;;;;;5053582;28;20205;-83
2023/09/29 05:47:51;;;;;;;5.23;2.50;;;;;;;;;;5053615;28;20198;-83
2023/09/29 05:50:20;;;;;;;6.20;1.33;;;;;;;;;;5053620;28;20202;-83
2023/09/29 05:52:50;;;;;;;8.47;3.93;;;;;;;;;;5053497;28;20215;-83
2023/09/29 05:55:22;;;;;;;9.73;4.23;;;;;;;;;;5053063;28;20243;-82
2023/09/29 05:57:50;;;;;;;9.07;3.83;;;;;;;;;;5053656;28;20202;-83
2023/09/29 06:00:19;;;;;;;6.77;2.30;;;;;;;;;;5053337;28;20215;-82
2023/09/29 06:02:48;;;;;;;8.33;3.60;;;;;;;;;;5053068;28;20206;-82
2023/09/29 06:05:17;;;;;;;6.33;3.80;;;;;;;;;;5053232;28;20241;-83
2023/09/29 06:07:46;;;;;;;1.37;1.00;;;;;;;;;;5053576;28;20210;-83
2023/09/29 06:10:16;;;;;;;4.20;1.73;;;;;;;;;;5053720;28;20217;-83
2023/09/29 06:12:45;;;;;;;3.93;2.00;;;;;;;;;;5052728;28;20198;-83
2023/09/29 06:15:13;;;;;;;4.73;2.40;;;;;;;;;;5053136;28;20203;-83
2023/09/29 06:17:42;;;;;;;5.00;2.60;;;;;;;;;;5053115;28;20207;-83
2023/09/29 06:20:11;;;;;;;5.43;3.87;;;;;;;;;;5052968;28;20246;-82
2023/09/29 06:22:39;;;;;;;5.80;3.67;;;;;;;;;;5053078;28;20277;-82
2023/09/29 06:25:08;;;;;;;3.80;2.60;;;;;;;;;;5054040;28;20198;-82
2023/09/29 06:27:39;;;;;;;11.33;4.10;;;;;;;;;;5053276;28;20205;-82
2023/09/29 06:30:08;;;;;;;6.00;3.63;;;;;;;;;;5053404;28;20289;-83
2023/09/29 06:32:36;;;;;;;11.13;4.80;;;;;;;;;;5053144;28;20213;-82
2023/09/29 06:35:05;;;;;;;11.43;4.63;;;;;;;;;;5053804;28;20412;-82
2023/09/29 06:37:34;;;;;;;1.83;1.70;;;;;;;;;;5052750;28;20229;-82
2023/09/29 06:40:03;;;;;;;10.20;3.83;;;;;;;;;;5052885;28;20225;-83
2023/09/29 06:42:31;;;;;;;4.97;1.80;;;;;;;;;;5052516;28;20206;-83
2023/09/29 06:45:01;;;;;;;5.93;3.33;;;;;;;;;;5053062;28;20198;-83
2023/09/29 06:47:30;;;;;;;8.37;4.00;;;;;;;;;;5052900;28;20210;-83
2023/09/29 06:49:59;;;;;;;6.43;3.40;;;;;;;;;;5051640;28;20229;-82
2023/09/29 06:52:27;;;;;;;8.13;3.17;;;;;;;;;;5052142;28;20281;-82
2023/09/29 06:54:56;;;;;;;9.20;3.87;;;;;;;;;;5052655;28;20213;-82
2023/09/29 06:57:25;;;;;;;9.57;4.60;;;;;;;;;;5051911;28;20210;-83
2023/09/29 06:59:53;;;;;;;7.27;3.77;;;;;;;;;;5052475;28;20271;-83
2023/09/29 07:02:23;;;;;;;7.03;4.60;;;;;;;;;;5052760;28;20198;-83
2023/09/29 07:04:52;;;;;;;7.00;3.43;;;;;;;;;;5051815;28;20236;-83
2023/09/29 07:07:20;;;;;;;11.73;4.47;;;;;;;;;;5051779;28;20198;-83
2023/09/29 07:09:49;;;;;;;6.60;2.93;;;;;;;;;;5051076;28;20257;-83
2023/09/29 07:12:17;;;;;;;8.13;3.13;;;;;;;;;;5051846;28;20194;-83
2023/09/29 07:14:47;;;;;;;7.93;3.83;;;;;;;;;;5052213;28;20241;-83
2023/09/29 07:17:15;;;;;;;5.90;2.77;;;;;;;;;;5051918;28;20210;-83
2023/09/29 07:19:46;;;;;;;4.33;2.97;;;;;;;;;;5051263;28;20210;-83
2023/09/29 07:22:15;;;;;;;6.30;3.07;;;;;;;;;;5051758;28;20407;-83
2023/09/29 07:24:44;;;;;;;7.47;4.80;;;;;;;;;;5052321;28;20301;-83
2023/09/29 07:27:13;;;;;;;5.20;3.40;;;;;;;;;;5051447;28;20202;-83
2023/09/29 07:29:41;;;;;;;6.07;3.40;;;;;;;;;;5051373;28;20195;-83
2023/09/29 07:32:12;;;;;;;6.80;2.83;;;;;;;;;;5051531;28;20190;-82
2023/09/29 07:34:41;;;;;;;7.60;4.40;;;;;;;;;;5051737;28;20201;-83
2023/09/29 07:37:11;;;;;;;7.07;2.40;;;;;;;;;;5051189;28;20225;-83
2023/09/29 07:39:39;;;;;;;7.77;4.40;;;;;;;;;;5051572;28;20205;-83
2023/09/29 07:42:09;;;;;;;3.90;2.73;;;;;;;;;;5051409;28;20198;-83
2023/09/29 07:44:37;;;;;;;5.63;3.83;;;;;;;;;;5051421;28;20260;-83
2023/09/29 07:47:08;;;;;;;3.50;2.67;;;;;;;;;;5051237;28;20207;-83
2023/09/29 07:49:40;;;;;;;8.00;4.00;;;;;;;;;;5051702;28;20269;-83
2023/09/29 07:52:08;;;;;;;5.93;3.57;;;;;;;;;;5051158;28;20198;-81
2023/09/29 07:54:38;;;;;;;4.27;2.40;;;;;;;;;;5051280;28;20207;-82
2023/09/29 07:57:07;;;;;;;3.17;2.17;;;;;;;;;;5050860;28;20208;-82
2023/09/29 07:59:36;;;;;;;8.67;4.00;;;;;;;;;;5051220;28;20230;-83
2023/09/29 08:02:06;;;;;;;11.10;5.47;;;;;;;;;;5052899;28;20215;-83
2023/09/29 08:04:35;;;;;;;7.20;3.37;;;;;;;;;;5054817;28;20237;-79
2023/09/29 08:07:03;;;;;;;8.33;3.80;;;;;;;;;;5055912;28;20204;-80
2023/09/29 08:09:33;;;;;;;11.77;4.70;;;;;;;;;;5055650;28;20191;-80
2023/09/29 08:12:03;;;;;;;9.40;3.47;;;;;;;;;;5055813;28;20225;-80
2023/09/29 08:14:32;;;;;;;4.87;3.73;;;;;;;;;;5055742;28;20207;-80
2023/09/29 08:17:00;;;;;;;7.43;3.23;;;;;;;;;;5055567;28;20203;-80
2023/09/29 08:19:29;;;;;;;7.50;2.77;;;;;;;;;;5055301;28;20210;-80
2023/09/29 08:21:58;;;;;;;6.60;3.30;;;;;;;;;;5055444;28;20234;-80
2023/09/29 08:24:26;;;;;;;7.30;3.87;;;;;;;;;;5055179;28;20261;-80
2023/09/29 08:26:55;;;;;;;5.67;3.20;;;;;;;;;;5055606;28;20208;-81
2023/09/29 08:29:25;;;;;;;6.60;3.93;;;;;;;;;;5055604;28;20203;-80
2023/09/29 08:31:56;;;;;;;7.17;4.47;;;;;;;;;;5055204;28;20299;-80
2023/09/29 08:34:24;;;;;;;5.77;3.60;;;;;;;;;;5055637;28;20211;-79
2023/09/29 08:36:53;;;;;;;7.80;1.87;;;;;;;;;;5055398;28;20220;-80
2023/09/29 08:39:23;;;;;;;4.80;2.97;;;;;;;;;;5055537;28;20201;-81
2023/09/29 08:41:55;;;;;;;7.37;3.80;;;;;;;;;;5055057;28;20223;-80
2023/09/29 08:44:28;;;;;;;5.00;3.30;;;;;;;;;;5055473;28;20201;-80
2023/09/29 08:46:59;;;;;;;6.87;3.47;;;;;;;;;;5055295;28;20205;-80
2023/09/29 08:49:28;;;;;;;4.50;2.53;;;;;;;;;;5055156;28;20211;-80
2023/09/29 08:52:17;;;;;;;2.60;2.03;;;;;;;;;;5055090;28;20197;-80
2023/09/29 08:54:46;;;;;;;4.80;2.23;;;;;;;;;;5054821;28;20207;-80
2023/09/29 08:57:15;;;;;;;1.30;1.13;;;;;;;;;;5054921;28;20204;-80
2023/09/29 08:59:46;;;;;;;3.30;2.30;;;;;;;;;;5054352;28;20202;-80
2023/09/29 09:02:15;;;;;;;3.00;2.47;;;;;;;;;;5054493;28;20215;-79
2023/09/29 09:04:43;;;;;;;4.80;2.57;;;;;;;;;;5054103;28;20237;-79
2023/09/29 09:07:12;;;;;;;7.27;2.80;;;;;;;;;;5054457;28;20216;-79
2023/09/29 09:09:47;;;;;;;3.87;1.97;;;;;;;;;;5053793;28;20220;-80
2023/09/29 09:12:16;;;;;;;2.77;2.27;;;;;;;;;;5053812;28;20194;-79
2023/09/29 09:14:46;;;;;;;0.53;0.53;;;;;;;;;;5054282;28;20198;-80
2023/09/29 09:17:14;;;;;;;6.50;3.07;;;;;;;;;;5054028;28;20267;-80
2023/09/29 09:19:45;;;;;;;5.73;1.83;;;;;;;;;;5053856;28;20202;-80
2023/09/29 09:22:14;;;;;;;4.80;2.60;;;;;;;;;;5054626;28;20221;-80
2023/09/29 09:24:43;;;;;;;2.13;1.43;;;;;;;;;;5055017;28;20197;-79
2023/09/29 09:27:13;;;;;;;3.93;2.23;;;;;;;;;;5054265;28;20297;-82
2023/09/29 09:29:42;;;;;;;2.00;1.40;;;;;;;;;;5053327;28;20198;-82
2023/09/29 09:32:14;;;;;;;5.03;2.53;;;;;;;;;;5054010;28;20232;-82
2023/09/29 09:34:42;;;;;;;1.60;1.40;;;;;;;;;;5053520;28;20231;-82
2023/09/29 09:37:12;;;;;;;3.27;2.47;;;;;;;;;;5053378;28;20222;-82
2023/09/29 09:39:42;;;;;;;1.70;1.60;;;;;;;;;;5053209;28;20196;-82
2023/09/29 09:42:12;;;;;;;4.73;2.73;;;;;;;;;;5053385;28;20255;-82
2023/09/29 09:44:42;;;;;;;3.43;1.70;;;;;;;;;;5053902;28;20201;-83
2023/09/29 09:47:14;;;;;;;4.63;3.10;;;;;;;;;;5053303;28;20205;-83
2023/09/29 09:49:47;;;;;;;3.27;1.93;;;;;;;;;;5053548;28;20281;-83
2023/09/29 09:52:20;;;;;;;3.10;2.93;;;;;;;;;;5053581;28;20225;-83
2023/09/29 09:54:50;;;;;;;0.80;0.70;;;;;;;;;;5053511;28;20224;-83
2023/09/29 09:57:20;;;;;;;3.27;1.90;;;;;;;;;;5053302;28;20276;-82
2023/09/29 09:59:49;;;;;;;4.73;3.33;;;;;;;;;;5053168;28;20209;-83
2023/09/29 10:02:22;;;;;;;8.30;3.27;;;;;;;;;;5052998;28;20223;-83
2023/09/29 10:04:52;;;;;;;2.57;2.40;;;;;;;;;;5052810;28;20241;-82
2023/09/29 10:07:21;;;;;;;3.20;1.80;;;;;;;;;;5052804;28;20206;-82
2023/09/29 10:09:50;;;;;;;9.27;2.83;;;;;;;;;;5052952;28;20210;-82
2023/09/29 10:12:25;;;;;;;3.50;2.03;;;;;;;;;;5053686;28;20202;-83
2023/09/29 10:14:54;;;;;;;2.43;2.23;;;;;;;;;;5052181;28;20186;-82
2023/09/29 10:17:24;;;;;;;3.83;1.63;;;;;;;;;;5053507;28;20364;-83
2023/09/29 10:19:54;;;;;;;1.63;1.53;;;;;;;;;;5052979;28;20264;-82
2023/09/29 10:22:24;;;;;;;3.47;1.13;;;;;;;;;;5052879;28;20219;-82
2023/09/29 10:24:59;;;;;;;3.33;1.30;;;;;;;;;;5051485;28;20198;-82
2023/09/29 10:27:30;;;;;;;8.63;2.17;;;;;;;;;;5053175;28;20223;-82
2023/09/29 10:30:16;;;;;;;1.17;1.07;;;;;;;;;;5052559;28;20201;-82
2023/09/29 10:32:50;;;;;;;6.30;1.20;;;;;;;;;;5052598;28;20258;-82
2023/09/29 10:35:20;;;;;;;7.30;2.17;;;;;;;;;;5052445;28;20284;-82
2023/09/29 10:37:54;;;;;;;2.40;1.20;;;;;;;;;;5052731;28;20217;-81
2023/09/29 10:40:25;;;;;;;2.90;1.47;;;;;;;;;;5052792;28;20194;-82
2023/09/29 10:42:56;;;;;;;2.83;1.53;;;;;;;;;;5052047;28;20221;-82
2023/09/29 10:45:28;;;;;;;5.53;2.33;;;;;;;;;;5052847;28;20216;-82
2023/09/29 10:48:02;;;;;;;1.80;1.27;;;;;;;;;;5052436;28;20209;-83
2023/09/29 10:50:32;;;;;;;0.83;0.83;;;;;;;;;;5052251;28;20471;-82
2023/09/29 10:53:03;;;;;;;3.30;1.53;;;;;;;;;;5052435;28;20203;-83
2023/09/29 10:55:32;;;;;;;1.40;1.17;;;;;;;;;;5052230;28;20210;-82
2023/09/29 10:58:00;;;;;;;1.17;1.00;;;;;;;;;;5052287;28;20204;-82
2023/09/29 11:00:29;;;;;;;7.00;0.87;;;;;;;;;;5052007;28;20203;-83
2023/09/29 11:02:57;;;;;;;3.13;1.47;;;;;;;;;;5051570;28;20218;-82
2023/09/29 11:05:27;;;;;;;2.30;1.13;;;;;;;;;;5052072;28;20233;-83
2023/09/29 11:07:56;;;;;;;1.10;0.77;;;;;;;;;;5053189;28;20209;-83
2023/09/29 11:10:25;;;;;;;0.70;0.70;;;;;;;;;;5052091;28;20200;-83
2023/09/29 11:12:53;;;;;;;3.90;1.07;;;;;;;;;;5052240;28;20196;-80
2023/09/29 11:15:26;;;;;;;3.77;1.20;;;;;;;;;;5053191;28;20199;-80
2023/09/29 11:17:55;;;;;;;2.23;0.80;;;;;;;;;;5052991;28;20262;-81
2023/09/29 11:20:26;;;;;;;1.47;0.87;;;;;;;;;;5052188;28;20199;-80
2023/09/29 11:23:07;;;;;;;5.77;1.50;;;;;;;;;;5052398;28;20317;-81
2023/09/29 11:25:45;;;;;;;4.20;1.73;;;;;;;;;;5052699;28;20255;-80
2023/09/29 11:28:17;;;;;;;2.23;1.13;;;;;;;;;;5052779;28;20246;-80
2023/09/29 11:30:45;;;;;;;4.87;1.60;;;;;;;;;;5051950;28;20214;-80
2023/09/29 11:36:11;;;;;;;2.10;1.57;;;;;;;;;;5556248;22;20231;-83
2023/09/29 11:38:41;;;;;;;2.10;1.37;;;;;;;;;;5036166;28;20204;-83
2023/09/29 11:41:11;;;;;;;4.27;1.57;;;;;;;;;;5035755;28;20214;-83
2023/09/29 11:43:40;;;;;;;5.80;1.77;;;;;;;;;;5036609;28;20234;-83
2023/09/29 11:46:09;;;;;;;1.77;1.67;;;;;;;;;;5037053;28;20195;-83
2023/09/29 11:48:40;;;;;;;3.57;1.47;;;;;;;;;;5035594;28;20221;-83
2023/09/29 11:51:10;;;;;;;1.30;1.30;;;;;;;;;;5036193;28;20202;-83
2023/09/29 11:53:39;;;;;;;6.37;2.17;;;;;;;;;;5036102;28;20237;-83
2023/09/29 11:56:09;;;;;;;2.13;1.97;;;;;;;;;;5035937;28;20206;-83
2023/09/29 11:58:38;;;;;;;0.77;0.77;;;;;;;;;;5035580;28;20220;-83
2023/09/29 12:01:08;;;;;;;2.60;1.17;;;;;;;;;;5036133;28;20261;-83
2023/09/29 12:03:37;;;;;;;1.03;0.93;;;;;;;;;;5035972;28;20255;-83
2023/09/29 12:06:08;;;;;;;6.37;1.33;;;;;;;;;;5036102;28;20205;-83
2023/09/29 12:08:37;;;;;;;4.27;2.00;;;;;;;;;;5036424;28;20201;-83
2023/09/29 12:11:06;;;;;;;10.53;2.77;;;;;;;;;;5036589;28;20209;-83
2023/09/29 12:13:39;;;;;;;13.10;2.93;;;;;;;;;;5036524;28;20205;-83
2023/09/29 12:16:09;;;;;;;6.00;2.47;;;;;;;;;;5035711;28;20207;-83
2023/09/29 12:18:38;;;;;;;6.93;2.10;;;;;;;;;;5035308;28;20206;-83
2023/09/29 12:21:10;;;;;;;2.20;1.00;;;;;;;;;;5035326;28;20199;-83
2023/09/29 12:23:41;;;;;;;3.60;1.83;;;;;;;;;;5035038;28;20247;-82
2023/09/29 12:26:09;;;;;;;7.03;2.53;;;;;;;;;;5034827;28;20197;-83
2023/09/29 12:28:39;;;;;;;5.77;2.40;;;;;;;;;;5035153;28;20216;-83
2023/09/29 12:31:15;;;;;;;3.77;2.10;;;;;;;;;;5035242;28;20196;-83
2023/09/29 12:33:45;;;;;;;3.77;1.67;;;;;;;;;;5034796;28;20198;-83
2023/09/29 12:36:14;;;;;;;7.50;2.03;;;;;;;;;;5034949;28;20247;-80
2023/09/29 12:38:44;;;;;;;5.77;2.20;;;;;;;;;;5035660;28;20211;-81
2023/09/29 12:41:14;;;;;;;5.17;2.00;;;;;;;;;;5035478;28;20208;-81
2023/09/29 12:43:44;;;;;;;3.13;1.57;;;;;;;;;;5034711;28;20286;-81
2023/09/29 12:46:13;;;;;;;3.43;1.73;;;;;;;;;;5035029;28;20237;-80
2023/09/29 12:48:43;;;;;;;3.03;1.93;;;;;;;;;;5034321;28;20267;-81
2023/09/29 12:51:15;;;;;;;5.67;1.73;;;;;;;;;;5035000;28;20200;-81
2023/09/29 12:53:56;;;;;;;4.03;2.27;;;;;;;;;;5034617;28;20208;-81
2023/09/29 12:56:25;;;;;;;6.60;5.93;;;;;;;;;;5035726;28;20211;-82
2023/09/29 12:58:56;;;;;;;2.73;1.67;;;;;;;;;;5034712;28;20204;-82
2023/09/29 13:01:25;;;;;;;1.73;0.83;;;;;;;;;;5034075;28;20246;-81
2023/09/29 13:03:54;;;;;;;4.83;1.50;;;;;;;;;;5033698;28;20219;-81
2023/09/29 13:06:23;;;;;;;5.63;2.17;;;;;;;;;;5034333;28;20210;-81
2023/09/29 13:08:53;;;;;;;4.17;2.03;;;;;;;;;;5034635;28;20214;-82
2023/09/29 13:11:23;;;;;;;6.23;1.40;;;;;;;;;;5034158;28;20198;-81
2023/09/29 13:13:51;;;;;;;2.93;2.30;;;;;;;;;;5034547;28;20296;-81
2023/09/29 13:16:23;;;;;;;3.40;2.07;;;;;;;;;;5034900;28;20200;-81
2023/09/29 13:18:52;;;;;;;4.63;2.03;;;;;;;;;;5034726;28;20201;-81
2023/09/29 13:21:22;;;;;;;3.07;0.87;;;;;;;;;;5034343;28;20246;-81
2023/09/29 13:23:51;;;;;;;7.93;2.97;;;;;;;;;;5034247;28;20233;-81
2023/09/29 13:26:20;;;;;;;4.23;1.63;;;;;;;;;;5034842;28;20276;-81
2023/09/29 13:28:48;;;;;;;3.03;1.43;;;;;;;;;;5034545;28;20208;-81
2023/09/29 13:31:17;;;;;;;2.73;1.70;;;;;;;;;;5033830;28;20202;-81
2023/09/29 13:33:47;;;;;;;1.70;1.53;;;;;;;;;;5034324;28;20203;-81
2023/09/29 13:36:17;;;;;;;2.97;1.60;;;;;;;;;;5034267;28;20319;-81
2023/09/29 13:38:46;;;;;;;1.47;1.37;;;;;;;;;;5033834;28;20202;-82
2023/09/29 13:41:14;;;;;;;1.97;1.10;;;;;;;;;;5033359;28;20192;-82
2023/09/29 13:43:43;;;;;;;3.30;1.47;;;;;;;;;;5034267;28;20220;-81
2023/09/29 13:46:12;;;;;;;1.37;1.27;;;;;;;;;;5034218;28;20280;-82
2023/09/29 13:48:40;;;;;;;2.97;1.90;;;;;;;;;;5033021;28;20205;-81
2023/09/29 13:51:10;;;;;;;3.20;1.80;;;;;;;;;;5033495;28;20199;-81
2023/09/29 13:53:41;;;;;;;1.33;1.13;;;;;;;;;;5033713;28;20203;-81
2023/09/29 13:56:10;;;;;;;5.10;1.83;;;;;;;;;;5033499;28;20209;-82
2023/09/29 13:58:40;;;;;;;3.73;2.27;;;;;;;;;;5033574;28;20299;-81
2023/09/29 14:01:11;;;;;;;7.67;3.03;;;;;;;;;;5033786;28;20212;-82
2023/09/29 14:03:40;;;;;;;9.63;3.00;;;;;;;;;;5033982;28;20216;-81
2023/09/29 14:06:15;;;;;;;10.10;3.80;;;;;;;;;;5033237;28;20209;-81
2023/09/29 14:08:44;;;;;;;3.50;2.27;;;;;;;;;;5033450;28;20205;-81
2023/09/29 14:11:13;;;;;;;7.23;2.60;;;;;;;;;;5033088;28;20198;-83
2023/09/29 14:13:41;;;;;;;7.33;3.83;;;;;;;;;;5033510;28;20222;-82
2023/09/29 14:16:10;;;;;;;10.97;3.60;;;;;;;;;;5032423;28;20217;-83
2023/09/29 14:18:39;;;;;;;5.87;2.17;;;;;;;;;;5032626;28;20204;-83
2023/09/29 14:21:07;;;;;;;8.83;4.23;;;;;;;;;;5033182;28;20413;-85
2023/09/29 14:23:37;;;;;;;6.40;3.17;;;;;;;;;;5033034;28;20220;-85
2023/09/29 14:26:09;;;;;;;8.17;2.40;;;;;;;;;;5032574;28;20202;-83
2023/09/29 14:28:37;;;;;;;9.07;3.83;;;;;;;;;;5033163;28;20198;-83
2023/09/29 14:31:07;;;;;;;4.10;2.20;;;;;;;;;;5032690;28;20241;-83
2023/09/29 14:33:35;;;;;;;4.57;2.60;;;;;;;;;;5033219;28;20202;-83
2023/09/29 14:36:07;;;;;;;1.90;1.13;;;;;;;;;;5032081;28;20248;-82
2023/09/29 14:38:37;;;;;;;8.67;3.37;;;;;;;;;;5033008;28;20206;-83
2023/09/29 14:41:08;;;;;;;1.83;1.63;;;;;;;;;;5032465;28;20202;-83
2023/09/29 14:43:37;;;;;;;2.90;1.13;;;;;;;;;;5031879;28;20225;-82
2023/09/29 14:46:07;;;;;;;11.57;2.67;;;;;;;;;;5032268;28;20233;-83
2023/09/29 14:48:36;;;;;;;5.87;1.70;;;;;;;;;;5032572;28;20217;-83
2023/09/29 14:51:05;;;;;;;6.47;2.37;;;;;;;;;;5032805;28;20245;-82
2023/09/29 14:53:34;;;;;;;10.07;2.20;;;;;;;;;;5032040;28;20199;-83
2023/09/29 14:56:07;;;;;;;3.53;2.03;;;;;;;;;;5032165;28;20211;-82